Wetterdaten: Woche 21.08.17 - 27.08.17 (KW34)
Datum Zeit Temp. Aussen Temp. o. S. +5cm Feuchte Auss BlattFeu 1 Luftdruck Regen Sonnenschein Regendauer Solar Windben Empfang
21.08.2017 00:00 13,9 C 13,0 C 12,2 C 88 % 0 lf 1023,3 hPa 0,0 l/m 0,00 h 0,00 h 0 W/m 0,2 km/h (0 Bft) 95,80 %
21.08.2017 01:00 13,6 C 12,8 C 11,8 C 89 % 1 lf 1023,1 hPa 0,0 l/m 0,00 h 0,00 h 0 W/m 0,1 km/h (0 Bft) 97,30 %
21.08.2017 02:00 13,1 C 11,9 C 10,9 C 90 % 1 lf 1023,0 hPa 0,0 l/m 0,00 h 0,00 h 0 W/m 0,7 km/h (0 Bft) 94,66 %
21.08.2017 03:00 12,5 C 11,5 C 10,7 C 91 % 1 lf 1022,9 hPa 0,0 l/m 0,00 h 0,00 h 0 W/m 0,4 km/h (0 Bft) 97,29 %
21.08.2017 04:00 12,0 C 10,7 C 9,7 C 91 % 3 lf 1022,7 hPa 0,0 l/m 0,00 h 0,00 h 4 W/m 0,0 km/h (0 Bft) 96,56 %
21.08.2017 05:00 11,3 C 9,6 C 8,9 C 92 % 12 lf 1022,7 hPa 0,0 l/m 0,00 h 0,00 h 3 W/m 0,0 km/h (0 Bft) 97,29 %
21.08.2017 06:00 10,6 C 9,4 C 8,9 C 92 % 15 lf 1022,8 hPa 0,0 l/m 0,00 h 0,00 h 11 W/m 0,0 km/h (0 Bft) 96,49 %
21.08.2017 07:00 10,6 C 10,7 C 9,5 C 94 % 15 lf 1022,9 hPa 0,0 l/m 0,67 h 0,00 h 81 W/m 0,2 km/h (0 Bft) 93,95 %
21.08.2017 08:00 11,7 C 14,7 C 11,7 C 96 % 5 lf 1023,0 hPa 0,0 l/m 1,00 h 0,00 h 212 W/m 1,0 km/h (0 Bft) 97,79 %
21.08.2017 09:00 15,2 C 23,2 C 15,6 C 90 % 0 lf 1023,2 hPa 0,0 l/m 1,00 h 0,00 h 376 W/m 5,3 km/h (1 Bft) 98,50 %
21.08.2017 10:00 19,3 C 27,6 C 23,5 C 71 % 0 lf 1023,4 hPa 0,0 l/m 1,00 h 0,00 h 523 W/m 7,9 km/h (2 Bft) 94,09 %
21.08.2017 11:00 20,9 C 30,8 C 24,5 C 62 % 0 lf 1023,4 hPa 0,0 l/m 1,00 h 0,00 h 614 W/m 8,3 km/h (2 Bft) 97,65 %
21.08.2017 12:00 21,9 C 28,0 C 25,3 C 58 % 0 lf 1023,2 hPa 0,0 l/m 0,83 h 0,00 h 680 W/m 9,9 km/h (2 Bft) 96,39 %
21.08.2017 13:00 22,1 C 26,2 C 22,9 C 57 % 0 lf 1022,6 hPa 0,0 l/m 0,50 h 0,00 h 466 W/m 8,6 km/h (2 Bft) 96,51 %
21.08.2017 14:00 21,4 C 23,4 C 22,5 C 58 % 0 lf 1022,4 hPa 0,0 l/m 0,03 h 0,00 h 307 W/m 5,9 km/h (2 Bft) 95,87 %
21.08.2017 15:00 21,8 C 25,9 C 24,2 C 57 % 0 lf 1021,9 hPa 0,0 l/m 0,47 h 0,00 h 404 W/m 6,9 km/h (2 Bft) 97,43 %
21.08.2017 16:00 22,5 C 25,0 C 23,2 C 55 % 0 lf 1021,5 hPa 0,0 l/m 0,77 h 0,00 h 425 W/m 7,1 km/h (2 Bft) 96,65 %
21.08.2017 17:00 22,4 C 23,6 C 21,1 C 54 % 0 lf 1021,3 hPa 0,0 l/m 0,87 h 0,00 h 342 W/m 8,5 km/h (2 Bft) 94,30 %
21.08.2017 18:00 21,7 C 22,6 C 20,3 C 56 % 0 lf 1021,3 hPa 0,0 l/m 0,83 h 0,00 h 241 W/m 8,2 km/h (2 Bft) 98,28 %
21.08.2017 19:00 21,1 C 21,0 C 19,3 C 57 % 0 lf 1021,0 hPa 0,0 l/m 0,57 h 0,00 h 88 W/m 6,9 km/h (2 Bft) 95,97 %
21.08.2017 20:00 20,5 C 19,1 C 17,4 C 62 % 0 lf 1021,1 hPa 0,0 l/m 0,07 h 0,00 h 15 W/m 4,2 km/h (1 Bft) 95,74 %
21.08.2017 21:00 19,0 C 16,6 C 15,0 C 70 % 0 lf 1021,4 hPa 0,0 l/m 0,00 h 0,00 h 2 W/m 0,6 km/h (0 Bft) 97,31 %
21.08.2017 22:00 17,2 C 15,2 C 13,6 C 76 % 0 lf 1021,4 hPa 0,0 l/m 0,00 h 0,00 h 0 W/m 1,4 km/h (1 Bft) 97,64 %
21.08.2017 23:00 16,1 C 15,0 C 13,9 C 81 % 0 lf 1021,4 hPa 0,0 l/m 0,00 h 0,00 h 0 W/m 0,3 km/h (0 Bft) 93,66 %
22.08.2017 00:00 15,6 C 14,5 C 13,2 C 85 % 0 lf 1021,3 hPa 0,0 l/m 0,00 h 0,00 h 4 W/m 0,6 km/h (0 Bft) 98,55 %
22.08.2017 01:00 14,8 C 12,5 C 11,5 C 86 % 1 lf 1021,0 hPa 0,0 l/m 0,00 h 0,00 h 3 W/m 0,1 km/h (0 Bft) 96,93 %
22.08.2017 02:00 13,7 C 11,6 C 10,7 C 88 % 2 lf 1020,9 hPa 0,0 l/m 0,00 h 0,00 h 2 W/m 0,0 km/h (0 Bft) 95,30 %
22.08.2017 03:00 12,8 C 11,9 C 10,2 C 90 % 3 lf 1021,0 hPa 0,0 l/m 0,00 h 0,00 h 4 W/m 0,0 km/h (0 Bft) 96,37 %
22.08.2017 04:00 12,2 C 11,7 C 10,0 C 92 % 4 lf 1020,8 hPa 0,0 l/m 0,00 h 0,00 h 0 W/m 0,9 km/h (0 Bft) 96,58 %
22.08.2017 05:00 12,1 C 12,0 C 10,8 C 94 % 2 lf 1020,7 hPa 0,0 l/m 0,00 h 0,00 h 0 W/m 1,4 km/h (1 Bft) 95,45 %
22.08.2017 06:00 12,4 C 12,6 C 11,6 C 95 % 1 lf 1020,7 hPa 0,0 l/m 0,00 h 0,00 h 8 W/m 4,5 km/h (1 Bft) 95,13 %
22.08.2017 07:00 12,7 C 13,1 C 12,1 C 95 % 1 lf 1020,7 hPa 0,0 l/m 0,00 h 0,00 h 29 W/m 5,3 km/h (1 Bft) 91,97 %
22.08.2017 08:00 13,4 C 15,3 C 13,8 C 93 % 0 lf 1020,7 hPa 0,0 l/m 0,13 h 0,00 h 135 W/m 9,1 km/h (2 Bft) 93,42 %
22.08.2017 09:00 16,0 C 22,8 C 16,2 C 86 % 0 lf 1020,8 hPa 0,0 l/m 1,00 h 0,00 h 359 W/m 11,1 km/h (2 Bft) 95,30 %
22.08.2017 10:00 19,6 C 26,4 C 23,5 C 74 % 0 lf 1020,6 hPa 0,0 l/m 1,00 h 0,00 h 545 W/m 11,8 km/h (2 Bft) 92,10 %
22.08.2017 11:00 21,9 C 28,5 C 25,7 C 66 % 0 lf 1020,5 hPa 0,0 l/m 1,00 h 0,00 h 699 W/m 13,0 km/h (3 Bft) 93,59 %
22.08.2017 12:00 23,6 C 29,7 C 26,6 C 60 % 0 lf 1020,3 hPa 0,0 l/m 0,93 h 0,00 h 777 W/m 14,3 km/h (3 Bft) 95,77 %
22.08.2017 13:00 24,5 C 30,1 C 25,0 C 55 % 0 lf 1019,7 hPa 0,0 l/m 1,00 h 0,00 h 681 W/m 14,4 km/h (3 Bft) 92,38 %
22.08.2017 14:00 25,2 C 31,4 C 28,1 C 53 % 0 lf 1019,4 hPa 0,0 l/m 1,00 h 0,00 h 799 W/m 14,8 km/h (3 Bft) 93,79 %
22.08.2017 15:00 25,7 C 31,7 C 30,1 C 51 % 0 lf 1019,1 hPa 0,0 l/m 1,00 h 0,00 h 760 W/m 13,1 km/h (3 Bft) 93,95 %
22.08.2017 16:00 25,7 C 29,4 C 24,7 C 51 % 0 lf 1018,7 hPa 0,0 l/m 1,00 h 0,00 h 608 W/m 13,0 km/h (3 Bft) 95,02 %
22.08.2017 17:00 25,1 C 25,7 C 22,8 C 52 % 0 lf 1018,4 hPa 0,0 l/m 0,93 h 0,00 h 405 W/m 14,1 km/h (3 Bft) 91,40 %
22.08.2017 18:00 24,1 C 24,0 C 21,6 C 55 % 0 lf 1017,8 hPa 0,0 l/m 0,53 h 0,00 h 199 W/m 12,9 km/h (3 Bft) 94,65 %
22.08.2017 19:00 23,1 C 22,8 C 20,9 C 57 % 0 lf 1017,6 hPa 0,0 l/m 0,73 h 0,00 h 96 W/m 10,0 km/h (2 Bft) 94,63 %
22.08.2017 20:00 22,1 C 20,8 C 19,0 C 60 % 0 lf 1017,6 hPa 0,0 l/m 0,50 h 0,00 h 30 W/m 9,6 km/h (2 Bft) 91,81 %
22.08.2017 21:00 20,7 C 19,3 C 17,3 C 65 % 0 lf 1017,7 hPa 0,0 l/m 0,00 h 0,00 h 3 W/m 9,2 km/h (2 Bft) 93,20 %
22.08.2017 22:00 19,3 C 17,9 C 16,3 C 69 % 0 lf 1017,7 hPa 0,0 l/m 0,00 h 0,00 h 3 W/m 10,4 km/h (2 Bft) 95,34 %
22.08.2017 23:00 18,1 C 16,9 C 15,5 C 73 % 0 lf 1017,5 hPa 0,0 l/m 0,00 h 0,00 h 3 W/m 10,5 km/h (2 Bft) 91,67 %
23.08.2017 00:00 17,2 C 15,3 C 13,8 C 76 % 0 lf 1017,2 hPa 0,0 l/m 0,00 h 0,00 h 3 W/m 3,9 km/h (1 Bft) 96,31 %
23.08.2017 01:00 16,0 C 13,7 C 12,4 C 80 % 0 lf 1017,1 hPa 0,0 l/m 0,00 h 0,00 h 4 W/m 0,0 km/h (0 Bft) 97,16 %
23.08.2017 02:00 14,9 C 13,1 C 11,9 C 84 % 0 lf 1016,9 hPa 0,0 l/m 0,00 h 0,00 h 5 W/m 0,3 km/h (0 Bft) 95,94 %
23.08.2017 03:00 14,2 C 12,9 C 11,7 C 85 % 1 lf 1016,8 hPa 0,0 l/m 0,00 h 0,00 h 4 W/m 0,5 km/h (0 Bft) 96,37 %
23.08.2017 04:00 13,8 C 13,3 C 11,6 C 89 % 1 lf 1016,5 hPa 0,0 l/m 0,00 h 0,00 h 0 W/m 2,3 km/h (1 Bft) 97,32 %
23.08.2017 05:00 13,6 C 13,5 C 11,8 C 91 % 1 lf 1016,1 hPa 0,0 l/m 0,00 h 0,00 h 0 W/m 8,1 km/h (2 Bft) 97,90 %
23.08.2017 06:00 13,9 C 13,9 C 12,3 C 90 % 0 lf 1015,8 hPa 0,0 l/m 0,23 h 0,00 h 19 W/m 11,2 km/h (2 Bft) 98,09 %
23.08.2017 07:00 14,4 C 15,0 C 13,4 C 89 % 0 lf 1015,8 hPa 0,0 l/m 0,97 h 0,00 h 99 W/m 14,6 km/h (3 Bft) 95,86 %
23.08.2017 08:00 15,5 C 17,3 C 14,7 C 86 % 0 lf 1015,7 hPa 0,0 l/m 1,00 h 0,00 h 257 W/m 19,5 km/h (3 Bft) 95,73 %
23.08.2017 09:00 18,9 C 25,6 C 18,6 C 77 % 0 lf 1015,6 hPa 0,0 l/m 1,00 h 0,00 h 432 W/m 17,1 km/h (3 Bft) 97,65 %
23.08.2017 10:00 21,1 C 27,5 C 25,1 C 70 % 0 lf 1015,5 hPa 0,0 l/m 0,97 h 0,00 h 549 W/m 17,3 km/h (3 Bft) 97,29 %
23.08.2017 11:00 23,3 C 29,5 C 27,7 C 64 % 0 lf 1015,3 hPa 0,0 l/m 1,00 h 0,00 h 705 W/m 18,3 km/h (3 Bft) 93,59 %
23.08.2017 12:00 25,5 C 31,8 C 28,9 C 58 % 0 lf 1015,2 hPa 0,0 l/m 1,00 h 0,00 h 759 W/m 16,2 km/h (3 Bft) 99,34 %
23.08.2017 13:00 26,6 C 31,7 C 27,1 C 53 % 0 lf 1014,5 hPa 0,0 l/m 1,00 h 0,00 h 807 W/m 24,4 km/h (4 Bft) 96,23 %
23.08.2017 14:00 27,2 C 32,1 C 29,1 C 50 % 0 lf 1014,0 hPa 0,0 l/m 1,00 h 0,00 h 782 W/m 22,1 km/h (4 Bft) 94,72 %
23.08.2017 15:00 27,7 C 31,4 C 30,3 C 49 % 0 lf 1013,6 hPa 0,0 l/m 1,00 h 0,00 h 607 W/m 19,8 km/h (3 Bft) 97,44 %
23.08.2017 16:00 28,2 C 30,4 C 27,0 C 48 % 0 lf 1013,1 hPa 0,0 l/m 1,00 h 0,00 h 484 W/m 18,3 km/h (3 Bft) 96,51 %
23.08.2017 17:00 28,0 C 27,9 C 26,0 C 50 % 0 lf 1012,6 hPa 0,0 l/m 0,63 h 0,00 h 324 W/m 18,4 km/h (3 Bft) 94,38 %
23.08.2017 18:00 27,0 C 26,9 C 25,6 C 55 % 0 lf 1012,4 hPa 0,0 l/m 0,23 h 0,00 h 150 W/m 14,5 km/h (3 Bft) 97,10 %
23.08.2017 19:00 26,4 C 26,0 C 24,1 C 59 % 0 lf 1012,2 hPa 0,0 l/m 0,63 h 0,00 h 93 W/m 12,0 km/h (2 Bft) 96,65 %
23.08.2017 20:00 25,1 C 23,5 C 21,2 C 62 % 0 lf 1012,1 hPa 0,0 l/m 0,00 h 0,00 h 14 W/m 9,0 km/h (2 Bft) 96,94 %
23.08.2017 21:00 23,4 C 22,3 C 20,2 C 67 % 0 lf 1011,9 hPa 0,0 l/m 0,00 h 0,00 h 0 W/m 9,4 km/h (2 Bft) 95,02 %
23.08.2017 22:00 22,3 C 21,3 C 19,4 C 72 % 0 lf 1011,8 hPa 0,0 l/m 0,00 h 0,00 h 5 W/m 10,3 km/h (2 Bft) 98,58 %
23.08.2017 23:00 21,6 C 21,0 C 19,0 C 77 % 0 lf 1012,1 hPa 0,0 l/m 0,00 h 0,00 h 3 W/m 11,4 km/h (2 Bft) 96,45 %
24.08.2017 00:00 21,3 C 20,4 C 19,0 C 84 % 0 lf 1012,8 hPa 0,0 l/m 0,00 h 0,00 h 5 W/m 14,3 km/h (3 Bft) 95,03 %
24.08.2017 01:00 20,6 C 20,0 C 18,5 C 87 % 0 lf 1013,1 hPa 0,0 l/m 0,00 h 0,00 h 5 W/m 12,7 km/h (3 Bft) 97,57 %
24.08.2017 02:00 20,2 C 19,9 C 18,8 C 88 % 0 lf 1013,2 hPa 0,0 l/m 0,00 h 0,00 h 5 W/m 14,9 km/h (3 Bft) 97,39 %
24.08.2017 03:00 19,2 C 18,4 C 17,2 C 83 % 0 lf 1013,4 hPa 0,0 l/m 0,00 h 0,00 h 5 W/m 17,8 km/h (3 Bft) 94,69 %
24.08.2017 04:00 17,9 C 17,1 C 16,2 C 86 % 0 lf 1013,6 hPa 0,0 l/m 0,00 h 0,00 h 4 W/m 15,4 km/h (3 Bft) 97,83 %
24.08.2017 05:00 17,1 C 16,2 C 15,1 C 88 % 0 lf 1013,8 hPa 0,0 l/m 0,00 h 0,00 h 5 W/m 14,0 km/h (3 Bft) 95,24 %
24.08.2017 06:00 16,4 C 15,7 C 14,9 C 90 % 0 lf 1014,3 hPa 0,0 l/m 0,20 h 0,00 h 203 W/m 14,4 km/h (3 Bft) 97,57 %
24.08.2017 07:00 16,1 C 16,1 C 15,2 C 91 % 0 lf 1014,7 hPa 0,0 l/m 0,03 h 0,00 h 50 W/m 16,6 km/h (3 Bft) 95,94 %
24.08.2017 08:00 16,5 C 17,4 C 16,5 C 91 % 0 lf 1015,0 hPa 0,0 l/m 0,33 h 0,00 h 136 W/m 17,2 km/h (3 Bft) 94,96 %
24.08.2017 09:00 17,4 C 19,3 C 17,9 C 89 % 0 lf 1015,3 hPa 0,0 l/m 0,33 h 0,00 h 205 W/m 18,7 km/h (3 Bft) 96,69 %
24.08.2017 10:00 18,3 C 19,8 C 19,3 C 86 % 0 lf 1015,8 hPa 0,0 l/m 0,13 h 0,00 h 189 W/m 17,3 km/h (3 Bft) 98,32 %
24.08.2017 11:00 19,5 C 24,3 C 22,8 C 82 % 0 lf 1016,2 hPa 0,0 l/m 0,47 h 0,00 h 436 W/m 17,5 km/h (3 Bft) 93,88 %
24.08.2017 12:00 21,6 C 27,5 C 24,7 C 74 % 0 lf 1016,2 hPa 0,0 l/m 0,67 h 0,00 h 563 W/m 18,4 km/h (3 Bft) 97,43 %
24.08.2017 13:00 23,0 C 28,8 C 24,4 C 68 % 0 lf 1016,2 hPa 0,0 l/m 0,67 h 0,00 h 576 W/m 17,2 km/h (3 Bft) 96,83 %
24.08.2017 14:00 23,8 C 30,3 C 26,8 C 64 % 0 lf 1016,1 hPa 0,0 l/m 0,83 h 0,00 h 682 W/m 18,3 km/h (3 Bft) 96,30 %
24.08.2017 15:00 24,5 C 28,7 C 28,2 C 59 % 0 lf 1016,0 hPa 0,0 l/m 0,73 h 0,00 h 533 W/m 16,2 km/h (3 Bft) 96,65 %
24.08.2017 16:00 23,9 C 25,7 C 24,7 C 60 % 0 lf 1016,0 hPa 0,0 l/m 0,47 h 0,00 h 306 W/m 14,5 km/h (3 Bft) 96,37 %
24.08.2017 17:00 23,7 C 24,4 C 23,6 C 61 % 0 lf 1016,0 hPa 0,0 l/m 0,67 h 0,00 h 291 W/m 15,3 km/h (3 Bft) 97,11 %
24.08.2017 18:00 23,0 C 23,1 C 22,1 C 63 % 0 lf 1016,0 hPa 0,0 l/m 0,63 h 0,00 h 166 W/m 13,2 km/h (3 Bft) 95,06 %
24.08.2017 19:00 22,4 C 21,9 C 20,7 C 64 % 0 lf 1016,0 hPa 0,0 l/m 0,07 h 0,00 h 64 W/m 9,5 km/h (2 Bft) 98,01 %
24.08.2017 20:00 21,4 C 20,0 C 18,6 C 68 % 0 lf 1016,1 hPa 0,0 l/m 0,00 h 0,00 h 16 W/m 4,5 km/h (1 Bft) 96,37 %
24.08.2017 21:00 20,3 C 19,0 C 17,8 C 73 % 0 lf 1016,7 hPa 0,0 l/m 0,00 h 0,00 h 0 W/m 8,5 km/h (2 Bft) 95,45 %
24.08.2017 22:00 19,1 C 17,3 C 16,0 C 77 % 0 lf 1017,2 hPa 0,0 l/m 0,00 h 0,00 h 0 W/m 7,5 km/h (2 Bft) 97,45 %
24.08.2017 23:00 17,7 C 15,5 C 14,1 C 79 % 0 lf 1017,3 hPa 0,0 l/m 0,00 h 0,00 h 4 W/m 0,8 km/h (0 Bft) 98,41 %
25.08.2017 00:00 16,5 C 14,3 C 13,2 C 83 % 0 lf 1017,3 hPa 0,0 l/m 0,00 h 0,00 h 5 W/m 0,0 km/h (0 Bft) 92,72 %
25.08.2017 01:00 15,5 C 14,0 C 12,7 C 86 % 1 lf 1017,3 hPa 0,0 l/m 0,00 h 0,00 h 4 W/m 0,0 km/h (0 Bft) 98,51 %
25.08.2017 02:00 14,8 C 13,5 C 12,3 C 88 % 2 lf 1017,3 hPa 0,0 l/m 0,00 h 0,00 h 3 W/m 0,0 km/h (0 Bft) 98,12 %
25.08.2017 03:00 14,2 C 13,1 C 12,1 C 90 % 3 lf 1017,5 hPa 0,0 l/m 0,00 h 0,00 h 0 W/m 0,0 km/h (0 Bft) 94,52 %
25.08.2017 04:00 14,1 C 13,3 C 12,7 C 92 % 2 lf 1017,5 hPa 0,0 l/m 0,00 h 0,00 h 0 W/m 0,0 km/h (0 Bft) 96,50 %
25.08.2017 05:00 13,9 C 12,7 C 11,9 C 93 % 3 lf 1017,2 hPa 0,0 l/m 0,00 h 0,00 h 0 W/m 0,0 km/h (0 Bft) 97,51 %
25.08.2017 06:00 13,5 C 12,3 C 11,7 C 93 % 3 lf 1017,4 hPa 0,0 l/m 0,07 h 0,00 h 10 W/m 0,8 km/h (0 Bft) 95,75 %
25.08.2017 07:00 13,5 C 13,9 C 12,8 C 94 % 2 lf 1017,6 hPa 0,0 l/m 0,00 h 0,00 h 44 W/m 3,4 km/h (1 Bft) 97,20 %
25.08.2017 08:00 14,4 C 16,7 C 14,8 C 96 % 0 lf 1017,8 hPa 0,0 l/m 0,47 h 0,00 h 153 W/m 2,7 km/h (1 Bft) 96,01 %
25.08.2017 09:00 16,5 C 22,8 C 17,8 C 93 % 0 lf 1018,1 hPa 0,0 l/m 0,93 h 0,00 h 282 W/m 5,7 km/h (1 Bft) 95,65 %
25.08.2017 10:00 19,8 C 25,9 C 23,5 C 79 % 0 lf 1018,1 hPa 0,0 l/m 1,02 h 0,00 h 536 W/m 8,1 km/h (2 Bft) 98,67 %
25.08.2017 11:00 22,3 C 28,9 C 26,7 C 69 % 0 lf 1017,9 hPa 0,0 l/m 0,93 h 0,00 h 748 W/m 12,2 km/h (2 Bft) 97,59 %
25.08.2017 12:00 24,2 C 31,4 C 27,5 C 63 % 0 lf 1017,5 hPa 0,0 l/m 1,00 h 0,00 h 809 W/m 12,9 km/h (3 Bft) 97,74 %
25.08.2017 13:00 25,0 C 31,4 C 25,8 C 58 % 0 lf 1017,0 hPa 0,0 l/m 1,00 h 0,00 h 792 W/m 15,0 km/h (3 Bft) 100,00 %
25.08.2017 14:00 25,2 C 30,0 C 26,9 C 58 % 0 lf 1016,8 hPa 0,0 l/m 1,05 h 0,00 h 774 W/m 11,3 km/h (2 Bft) 94,52 %
25.08.2017 15:00 25,3 C 27,4 C 26,8 C 57 % 0 lf 1016,4 hPa 0,0 l/m 0,60 h 0,00 h 504 W/m 11,3 km/h (2 Bft) 96,58 %
25.08.2017 16:00 24,9 C 26,0 C 25,2 C 58 % 0 lf 1016,1 hPa 0,0 l/m 0,33 h 0,00 h 248 W/m 12,0 km/h (2 Bft) 96,94 %
25.08.2017 17:00 24,6 C 25,7 C 24,6 C 59 % 0 lf 1015,4 hPa 0,0 l/m 0,50 h 0,00 h 227 W/m 12,8 km/h (3 Bft) 96,65 %
25.08.2017 18:00 24,2 C 24,4 C 23,4 C 61 % 0 lf 1015,0 hPa 0,0 l/m 0,07 h 0,00 h 143 W/m 13,4 km/h (3 Bft) 94,63 %
25.08.2017 19:00 23,4 C 23,0 C 21,7 C 64 % 0 lf 1014,9 hPa 0,0 l/m 0,03 h 0,00 h 52 W/m 11,7 km/h (2 Bft) 97,43 %
25.08.2017 20:00 22,7 C 22,0 C 20,8 C 66 % 0 lf 1015,0 hPa 0,0 l/m 0,00 h 0,00 h 11 W/m 7,6 km/h (2 Bft) 97,22 %
25.08.2017 21:00 22,1 C 21,3 C 20,0 C 67 % 0 lf 1015,1 hPa 0,0 l/m 0,00 h 0,00 h 5 W/m 8,2 km/h (2 Bft) 95,80 %
25.08.2017 22:00 21,3 C 20,1 C 18,3 C 69 % 0 lf 1014,9 hPa 0,0 l/m 0,00 h 0,00 h 5 W/m 9,2 km/h (2 Bft) 95,80 %
25.08.2017 23:00 20,3 C 18,6 C 17,0 C 72 % 0 lf 1014,8 hPa 0,0 l/m 0,00 h 0,00 h 0 W/m 4,1 km/h (1 Bft) 99,36 %
26.08.2017 00:00 19,5 C 18,7 C 17,3 C 76 % 0 lf 1014,7 hPa 0,0 l/m 0,00 h 0,00 h 0 W/m 1,7 km/h (1 Bft) 93,85 %
26.08.2017 01:00 19,2 C 18,4 C 17,2 C 78 % 0 lf 1014,4 hPa 0,0 l/m 0,00 h 0,00 h 5 W/m 3,3 km/h (1 Bft) 97,08 %
26.08.2017 02:00 18,7 C 17,1 C 15,9 C 81 % 0 lf 1014,2 hPa 0,0 l/m 0,00 h 0,00 h 4 W/m 1,1 km/h (0 Bft) 98,01 %
26.08.2017 03:00 17,9 C 16,5 C 15,3 C 83 % 0 lf 1014,0 hPa 0,0 l/m 0,00 h 0,00 h 4 W/m 1,4 km/h (1 Bft) 86,48 %
26.08.2017 04:00 17,2 C 15,9 C 15,1 C 85 % 0 lf 1014,1 hPa 0,0 l/m 0,00 h 0,00 h 4 W/m 0,2 km/h (0 Bft) 94,15 %
26.08.2017 05:00 16,8 C 16,1 C 15,0 C 88 % 0 lf 1013,6 hPa 0,0 l/m 0,00 h 0,00 h 4 W/m 0,0 km/h (0 Bft) 100,00 %
26.08.2017 06:00 16,8 C 16,0 C 14,9 C 91 % 1 lf 1013,5 hPa 0,0 l/m 0,00 h 0,00 h 7 W/m 0,0 km/h (0 Bft) 95,07 %
26.08.2017 07:00 16,7 C 16,5 C 15,8 C 91 % 1 lf 1013,8 hPa 0,0 l/m 0,00 h 0,00 h 23 W/m 0,1 km/h (0 Bft) 98,06 %
26.08.2017 08:00 17,3 C 18,7 C 17,8 C 93 % 0 lf 1013,7 hPa 0,0 l/m 0,00 h 0,00 h 82 W/m 0,1 km/h (0 Bft) 96,51 %
26.08.2017 09:00 18,8 C 21,1 C 20,2 C 94 % 0 lf 1013,8 hPa 0,0 l/m 0,07 h 0,00 h 169 W/m 2,7 km/h (1 Bft) 95,61 %
26.08.2017 10:00 20,3 C 23,5 C 22,5 C 93 % 0 lf 1014,0 hPa 0,0 l/m 0,50 h 0,00 h 271 W/m 4,1 km/h (1 Bft) 97,75 %
26.08.2017 11:00 22,2 C 26,3 C 24,5 C 87 % 0 lf 1014,1 hPa 0,0 l/m 1,00 h 0,00 h 713 W/m 6,7 km/h (2 Bft) 96,57 %
26.08.2017 12:00 23,1 C 28,7 C 25,3 C 84 % 0 lf 1014,1 hPa 0,0 l/m 1,00 h 0,00 h 830 W/m 7,3 km/h (2 Bft) 95,00 %
26.08.2017 13:00 24,7 C 30,1 C 27,3 C 77 % 0 lf 1013,9 hPa 0,0 l/m 0,93 h 0,00 h 866 W/m 9,1 km/h (2 Bft) 98,08 %
26.08.2017 14:00 25,6 C 30,9 C 27,8 C 69 % 0 lf 1013,7 hPa 0,0 l/m 1,00 h 0,00 h 815 W/m 11,9 km/h (2 Bft) 94,49 %
26.08.2017 15:00 26,3 C 29,8 C 28,3 C 66 % 0 lf 1013,7 hPa 0,0 l/m 1,00 h 0,00 h 710 W/m 9,5 km/h (2 Bft) 98,07 %
26.08.2017 16:00 26,5 C 29,9 C 27,1 C 63 % 0 lf 1013,9 hPa 0,0 l/m 1,00 h 0,00 h 611 W/m 11,2 km/h (2 Bft) 95,90 %
26.08.2017 17:00 26,3 C 27,3 C 25,4 C 59 % 0 lf 1013,8 hPa 0,0 l/m 1,00 h 0,00 h 480 W/m 13,3 km/h (3 Bft) 96,79 %
26.08.2017 18:00 25,5 C 25,8 C 23,6 C 61 % 0 lf 1013,8 hPa 0,0 l/m 1,00 h 0,00 h 324 W/m 12,7 km/h (3 Bft) 96,17 %
26.08.2017 19:00 24,6 C 23,9 C 21,3 C 63 % 0 lf 1013,9 hPa 0,0 l/m 0,03 h 0,00 h 55 W/m 6,3 km/h (2 Bft) 96,17 %
26.08.2017 20:00 23,2 C 20,7 C 18,5 C 70 % 0 lf 1014,1 hPa 0,0 l/m 0,13 h 0,00 h 15 W/m 0,1 km/h (0 Bft) 96,44 %
26.08.2017 21:00 21,0 C 18,5 C 16,6 C 77 % 0 lf 1014,7 hPa 0,0 l/m 0,00 h 0,00 h 0 W/m 0,1 km/h (0 Bft) 97,36 %
26.08.2017 22:00 19,6 C 17,3 C 15,8 C 81 % 0 lf 1014,9 hPa 0,0 l/m 0,00 h 0,00 h 0 W/m 0,3 km/h (0 Bft) 94,02 %
26.08.2017 23:00 18,4 C 16,5 C 15,0 C 84 % 1 lf 1015,1 hPa 0,0 l/m 0,00 h 0,00 h 0 W/m 0,6 km/h (0 Bft) 99,00 %
27.08.2017 00:00 17,6 C 16,2 C 15,0 C 86 % 0 lf 1015,1 hPa 0,0 l/m 0,00 h 0,00 h 0 W/m 0,7 km/h (0 Bft) 95,85 %
27.08.2017 01:00 17,1 C 16,1 C 14,7 C 87 % 0 lf 1015,4 hPa 0,0 l/m 0,00 h 0,00 h 0 W/m 1,3 km/h (1 Bft) 94,73 %
27.08.2017 02:00 16,9 C 16,5 C 15,6 C 89 % 0 lf 1015,5 hPa 0,0 l/m 0,00 h 0,00 h 0 W/m 2,7 km/h (1 Bft) 93,44 %
27.08.2017 03:00 17,3 C 16,9 C 15,8 C 90 % 8 lf 1015,8 hPa 0,0 l/m 0,00 h 0,25 h 0 W/m 3,7 km/h (1 Bft) 99,64 %
27.08.2017 04:00 17,5 C 16,7 C 15,6 C 91 % 9 lf 1015,8 hPa 0,0 l/m 0,00 h 0,00 h 0 W/m 3,8 km/h (1 Bft) 96,05 %
27.08.2017 05:00 17,2 C 15,9 C 14,7 C 91 % 2 lf 1016,0 hPa 0,0 l/m 0,00 h 0,00 h 0 W/m 2,6 km/h (1 Bft) 99,71 %
27.08.2017 06:00 16,4 C 14,6 C 13,4 C 91 % 10 lf 1016,3 hPa 0,0 l/m 0,00 h 0,00 h 11 W/m 1,5 km/h (1 Bft) 97,06 %
27.08.2017 07:00 15,9 C 15,4 C 14,0 C 93 % 9 lf 1016,6 hPa 0,0 l/m 0,47 h 0,00 h 61 W/m 2,7 km/h (1 Bft) 96,92 %
27.08.2017 08:00 16,3 C 18,6 C 16,0 C 95 % 1 lf 1017,0 hPa 0,0 l/m 0,87 h 0,00 h 172 W/m 4,7 km/h (1 Bft) 95,72 %
27.08.2017 09:00 17,7 C 22,9 C 18,8 C 94 % 0 lf 1017,4 hPa 0,0 l/m 0,57 h 0,00 h 238 W/m 4,1 km/h (1 Bft) 96,58 %
27.08.2017 10:00 20,2 C 28,5 C 23,8 C 82 % 0 lf 1017,8 hPa 0,0 l/m 1,00 h 0,00 h 453 W/m 8,9 km/h (2 Bft) 96,33 %
27.08.2017 11:00 22,0 C 32,3 C 25,8 C 70 % 0 lf 1018,0 hPa 0,0 l/m 1,00 h 0,00 h 624 W/m 12,9 km/h (3 Bft) 97,52 %
27.08.2017 12:00 23,4 C 33,9 C 26,2 C 63 % 0 lf 1018,0 hPa 0,0 l/m 0,93 h 0,00 h 641 W/m 11,6 km/h (2 Bft) 94,76 %
27.08.2017 13:00 24,8 C 34,0 C 24,6 C 55 % 0 lf 1017,6 hPa 0,0 l/m 1,00 h 0,00 h 733 W/m 11,2 km/h (2 Bft) 97,45 %
27.08.2017 14:00 25,7 C 35,2 C 26,5 C 51 % 0 lf 1017,4 hPa 0,0 l/m 1,00 h 0,00 h 763 W/m 10,3 km/h (2 Bft) 96,17 %
27.08.2017 15:00 25,9 C 33,5 C 27,9 C 49 % 0 lf 1017,3 hPa 0,0 l/m 1,00 h 0,00 h 677 W/m 11,7 km/h (2 Bft) 96,97 %
27.08.2017 16:00 25,8 C 30,6 C 24,4 C 50 % 0 lf 1017,2 hPa 0,0 l/m 1,00 h 0,00 h 519 W/m 13,6 km/h (3 Bft) 96,28 %
27.08.2017 17:00 25,5 C 26,4 C 23,5 C 51 % 0 lf 1017,1 hPa 0,0 l/m 1,00 h 0,00 h 367 W/m 12,5 km/h (3 Bft) 97,82 %
27.08.2017 18:00 24,6 C 24,8 C 22,7 C 54 % 0 lf 1016,9 hPa 0,0 l/m 1,00 h 0,00 h 221 W/m 13,2 km/h (3 Bft) 95,70 %
27.08.2017 19:00 23,6 C 23,0 C 21,4 C 57 % 0 lf 1017,0 hPa 0,0 l/m 0,43 h 0,00 h 79 W/m 12,0 km/h (2 Bft) 96,64 %
27.08.2017 20:00 22,5 C 21,1 C 19,5 C 61 % 0 lf 1017,3 hPa 0,0 l/m 0,33 h 0,00 h 20 W/m 7,6 km/h (2 Bft) 96,29 %
27.08.2017 21:00 21,0 C 18,4 C 16,2 C 66 % 0 lf 1017,8 hPa 0,0 l/m 0,00 h 0,00 h 4 W/m 3,1 km/h (1 Bft) 97,45 %
27.08.2017 22:00 19,2 C 16,6 C 14,8 C 72 % 0 lf 1018,1 hPa 0,0 l/m 0,00 h 0,00 h 4 W/m 0,0 km/h (0 Bft) 94,88 %
27.08.2017 23:00 17,9 C 16,1 C 14,1 C 76 % 0 lf 1018,1 hPa 0,0 l/m 0,00 h 0,00 h 3 W/m 0,0 km/h (0 Bft) 97,71 %
Min-Datum _ 21.08.17 21.08.17 21.08.17 23.08.17 21.08.17 23.08.17 - - - - 21.08.17 26.08.17
_ Min-Zeit 06:52 05:08 04:58 15:44 00:08 22:06 - - - - 00:00 03:15
Minimum _ 10,4 C 9,4 C 8,9 C 47 % 0 lf 1011,7 hPa - - - - 0,0 km/h (0 Bft) 7,89 %
Max-Datum _ 23.08.17 27.08.17 22.08.17 21.08.17 21.08.17 21.08.17 21.08.17 21.08.17 27.08.17 26.08.17 23.08.17 21.08.17
_ Max-Zeit 16:46 12:30 15:18 08:54 05:50 10:52 00:00 18:52 03:05 13:44 14:46 01:36
Maximum _ 28,3 C 37,2 C 35,0 C 97 % 15 lf 1023,6 hPa 0,0 l/m 0,08 h 0,08 h 1052 W/m 35,6 km/h
O-SO (5 Bft)
100,00 %
Durchschnitt _ 19,8 C 21,2 C 19,0 C 75 % 1 lf 1017,1 hPa #0,0 l/m #66:32 h #15 min. 273 W/m 8,1 km/h (2 Bft) 96,18 %
© 2017 W. Hausmann